createdAt,value
2023-04-15T00:01:37.381Z,100171.53
2023-04-15T00:04:01.048Z,100161.25
2023-04-15T00:06:24.944Z,100159.84
2023-04-15T00:08:48.812Z,100164.38
2023-04-15T00:11:12.595Z,100160.38
2023-04-15T00:13:36.175Z,100157.44
2023-04-15T00:16:01.626Z,100160.63
2023-04-15T00:18:26.160Z,100154.56
2023-04-15T00:20:49.825Z,100159.19
2023-04-15T00:23:13.687Z,100157.63
2023-04-15T00:25:37.287Z,100156.34
2023-04-15T00:28:00.884Z,100150.16
2023-04-15T00:30:25.758Z,100147.03
2023-04-15T00:32:51.090Z,100152.50
2023-04-15T00:35:18.289Z,100145.78
2023-04-15T00:37:44.144Z,100146.03
2023-04-15T00:40:14.102Z,100148.53
2023-04-15T00:42:38.180Z,100151.34
2023-04-15T00:45:01.820Z,100145.16
2023-04-15T00:47:25.400Z,100142.50
2023-04-15T00:49:50.415Z,100143.38
2023-04-15T00:52:15.109Z,100141.78
2023-04-15T00:54:38.844Z,100145.41
2023-04-15T00:57:03.580Z,100137.25
2023-04-15T00:59:27.541Z,100136.97
2023-04-15T01:01:51.951Z,100138.28
2023-04-15T01:04:15.878Z,100138.28
2023-04-15T01:06:41.157Z,100125.31
2023-04-15T01:09:05.097Z,100133.41
2023-04-15T01:11:29.311Z,100132.13
2023-04-15T01:13:53.408Z,100138.53
2023-04-15T01:16:18.031Z,100134.47
2023-04-15T01:18:41.895Z,100132.22
2023-04-15T01:21:07.850Z,100132.03
2023-04-15T01:23:34.027Z,100126.81
2023-04-15T01:26:00.272Z,100127.47
2023-04-15T01:28:23.944Z,100130.09
2023-04-15T01:30:47.532Z,100124.00
2023-04-15T01:33:12.273Z,100127.25
2023-04-15T01:35:35.834Z,100126.38
2023-04-15T01:38:06.597Z,100124.31
2023-04-15T01:40:30.276Z,100129.94
2023-04-15T01:42:56.701Z,100124.81
2023-04-15T01:45:20.490Z,100119.38
2023-04-15T01:47:44.050Z,100121.06
2023-04-15T01:50:09.741Z,100122.28
2023-04-15T01:52:33.312Z,100123.03
2023-04-15T01:54:57.220Z,100122.09
2023-04-15T01:57:20.947Z,100127.94
2023-04-15T01:59:46.149Z,100111.13
2023-04-15T02:02:10.647Z,100120.34
2023-04-15T02:04:34.400Z,100120.13
2023-04-15T02:06:57.957Z,100118.88
2023-04-15T02:09:21.668Z,100117.03
2023-04-15T02:11:45.187Z,100116.75
2023-04-15T02:14:09.512Z,100113.94
2023-04-15T02:16:34.894Z,100110.50
2023-04-15T02:18:58.679Z,100111.38
2023-04-15T02:21:22.669Z,100110.94
2023-04-15T02:23:48.355Z,100112.50
2023-04-15T02:26:12.020Z,100113.97
2023-04-15T02:28:35.868Z,100113.31
2023-04-15T02:30:59.895Z,100119.72
2023-04-15T02:33:25.209Z,100119.72
2023-04-15T02:35:48.738Z,100116.13
2023-04-15T02:38:12.639Z,100114.16
2023-04-15T02:40:36.182Z,100115.88
2023-04-15T02:43:00.737Z,100118.38
2023-04-15T02:45:27.623Z,100118.09
2023-04-15T02:47:51.579Z,100114.19
2023-04-15T02:50:17.238Z,100120.25
2023-04-15T02:52:42.288Z,100122.00
2023-04-15T02:55:08.223Z,100121.81
2023-04-15T02:57:32.190Z,100123.63
2023-04-15T03:00:01.406Z,100120.69
2023-04-15T03:02:26.256Z,100116.75
2023-04-15T03:04:49.976Z,100130.06
2023-04-15T03:07:15.216Z,100123.09
2023-04-15T03:09:40.408Z,100126.31
2023-04-15T03:12:04.792Z,100125.88
2023-04-15T03:14:28.314Z,100120.94
2023-04-15T03:16:52.055Z,100125.09
2023-04-15T03:19:15.986Z,100115.81
2023-04-15T03:21:40.482Z,100118.66
2023-04-15T03:24:07.329Z,100119.00
2023-04-15T03:26:32.580Z,100121.50
2023-04-15T03:29:00.086Z,100130.44
2023-04-15T03:31:24.176Z,100122.94
2023-04-15T03:33:47.795Z,100124.91
2023-04-15T03:36:11.512Z,100126.47
2023-04-15T03:38:35.047Z,100133.56
2023-04-15T03:41:00.027Z,100132.16
2023-04-15T03:43:23.554Z,100128.16
2023-04-15T03:45:47.175Z,100131.25
2023-04-15T03:48:17.666Z,100131.41
2023-04-15T03:50:41.689Z,100128.59
2023-04-15T03:53:05.398Z,100124.78
2023-04-15T03:55:29.071Z,100122.13
2023-04-15T03:57:53.950Z,100127.44
2023-04-15T04:00:17.685Z,100126.06
2023-04-15T04:02:41.621Z,100129.88
2023-04-15T04:05:06.058Z,100123.25
2023-04-15T04:07:29.936Z,100123.25
2023-04-15T04:09:53.683Z,100133.97
2023-04-15T04:12:17.283Z,100125.28
2023-04-15T04:14:42.329Z,100131.22
2023-04-15T04:17:06.282Z,100131.97
2023-04-15T04:19:30.024Z,100129.91
2023-04-15T04:21:53.876Z,100130.16
2023-04-15T04:24:17.562Z,100130.91
2023-04-15T04:26:41.315Z,100134.53
2023-04-15T04:29:05.046Z,100131.47
2023-04-15T04:31:30.115Z,100129.34
2023-04-15T04:33:53.896Z,100135.53
2023-04-15T04:36:17.409Z,100134.66
2023-04-15T04:38:40.979Z,100136.22
2023-04-15T04:41:04.536Z,100135.44
2023-04-15T04:43:28.189Z,100137.66
2023-04-15T04:45:52.147Z,100144.78
2023-04-15T04:48:17.467Z,100146.72
2023-04-15T04:50:41.207Z,100142.72
2023-04-15T04:53:04.862Z,100148.09
2023-04-15T04:55:28.414Z,100152.84
2023-04-15T04:57:52.115Z,100145.34
2023-04-15T05:00:16.140Z,100149.59
2023-04-15T05:02:39.950Z,100152.44
2023-04-15T05:05:05.331Z,100150.84
2023-04-15T05:07:29.000Z,100154.25
2023-04-15T05:09:52.513Z,100154.97
2023-04-15T05:12:16.210Z,100156.34
2023-04-15T05:14:39.894Z,100158.78
2023-04-15T05:17:03.572Z,100160.34
2023-04-15T05:19:27.185Z,100168.69
2023-04-15T05:21:52.181Z,100168.19
2023-04-15T05:24:15.799Z,100163.03
2023-04-15T05:26:39.498Z,100167.97
2023-04-15T05:29:03.148Z,100168.25
2023-04-15T05:31:27.008Z,100167.84
2023-04-15T05:33:50.675Z,100165.31
2023-04-15T05:36:14.223Z,100172.53
2023-04-15T05:38:39.095Z,100172.06
2023-04-15T05:41:02.817Z,100174.78
2023-04-15T05:43:26.482Z,100176.22
2023-04-15T05:45:50.089Z,100176.66
2023-04-15T05:48:13.624Z,100179.06
2023-04-15T05:50:37.266Z,100179.47
2023-04-15T05:53:00.815Z,100179.63
2023-04-15T05:55:25.817Z,100184.56
2023-04-15T05:57:49.379Z,100185.00
2023-04-15T06:00:15.325Z,100189.81
2023-04-15T06:02:39.039Z,100194.34
2023-04-15T06:05:03.561Z,100191.41
2023-04-15T06:07:27.185Z,100193.63
2023-04-15T06:09:51.210Z,100186.75
2023-04-15T06:12:17.041Z,100174.13
2023-04-15T06:14:41.002Z,100176.56
2023-04-15T06:17:04.507Z,100174.97
2023-04-15T06:19:28.089Z,100171.75
2023-04-15T06:21:51.606Z,100186.28
2023-04-15T06:24:15.486Z,100182.75
2023-04-15T06:26:39.027Z,100178.69
2023-04-15T06:29:04.254Z,100184.31
2023-04-15T06:31:27.963Z,100172.97
2023-04-15T06:33:51.575Z,100184.72
2023-04-15T06:36:15.294Z,100178.59
2023-04-15T06:38:38.980Z,100187.19
2023-04-15T06:41:02.609Z,100181.19
2023-04-15T06:43:26.260Z,100191.69
2023-04-15T06:45:51.267Z,100190.34
2023-04-15T06:48:14.893Z,100198.44
2023-04-15T06:50:38.539Z,100191.09
2023-04-15T06:53:02.272Z,100189.59
2023-04-15T06:55:25.888Z,100193.13
2023-04-15T06:57:49.626Z,100201.97
2023-04-15T07:00:14.902Z,100194.59
2023-04-15T07:02:39.950Z,100200.28
2023-04-15T07:05:03.609Z,100204.16
2023-04-15T07:07:27.800Z,100214.16
2023-04-15T07:09:51.327Z,100213.28
2023-04-15T07:12:15.321Z,100214.22
2023-04-15T07:14:38.842Z,100214.78
2023-04-15T07:17:02.712Z,100218.56
2023-04-15T07:19:27.758Z,100222.84
2023-04-15T07:21:51.396Z,100224.59
2023-04-15T07:24:17.514Z,100227.19
2023-04-15T07:26:41.125Z,100228.19
2023-04-15T07:29:04.644Z,100229.59
2023-04-15T07:31:28.514Z,100235.81
2023-04-15T07:33:52.169Z,100238.88
2023-04-15T07:36:17.296Z,100239.13
2023-04-15T07:38:41.673Z,100246.47
2023-04-15T07:41:05.695Z,100252.00
2023-04-15T07:43:29.283Z,100252.88
2023-04-15T07:45:53.181Z,100261.94
2023-04-15T07:48:16.882Z,100259.00
2023-04-15T07:50:40.635Z,100260.16
2023-04-15T07:53:05.753Z,100262.94
2023-04-15T07:55:30.679Z,100256.97
2023-04-15T07:57:54.209Z,100262.91
2023-04-15T08:00:18.614Z,100262.38
2023-04-15T08:02:42.790Z,100254.84
2023-04-15T08:05:07.732Z,100258.00
2023-04-15T08:07:31.479Z,100250.84
2023-04-15T08:09:56.704Z,100261.06
2023-04-15T08:12:20.631Z,100269.28
2023-04-15T08:14:44.297Z,100272.91
2023-04-15T08:17:08.027Z,100267.59
2023-04-15T08:19:32.293Z,100273.88
2023-04-15T08:21:56.153Z,100271.31
2023-04-15T08:24:19.913Z,100263.69
2023-04-15T08:26:44.807Z,100275.81
2023-04-15T08:29:08.369Z,100278.31
2023-04-15T08:31:32.075Z,100279.53
2023-04-15T08:33:56.928Z,100281.75
2023-04-15T08:36:21.039Z,100278.84
2023-04-15T08:38:45.827Z,100282.44
2023-04-15T08:41:20.152Z,100283.88
2023-04-15T08:43:54.440Z,100283.47
2023-04-15T08:46:18.303Z,100279.19
2023-04-15T08:48:41.980Z,100277.16
2023-04-15T08:51:05.919Z,100287.00
2023-04-15T08:53:31.548Z,100286.91
2023-04-15T08:55:59.658Z,100283.63
2023-04-15T08:58:23.529Z,100288.25
2023-04-15T09:00:48.807Z,100285.16
2023-04-15T09:03:12.906Z,100290.94
2023-04-15T09:05:37.771Z,100295.22
2023-04-15T09:08:01.562Z,100292.59
2023-04-15T09:10:25.284Z,100288.03
2023-04-15T09:12:49.161Z,100293.16
2023-04-15T09:15:13.820Z,100292.38
2023-04-15T09:17:44.903Z,100293.25
2023-04-15T09:20:14.256Z,100301.31
2023-04-15T09:22:38.585Z,100304.47
2023-04-15T09:25:02.161Z,100293.00
2023-04-15T09:27:26.516Z,100299.44
2023-04-15T09:29:52.361Z,100299.28
2023-04-15T09:32:17.677Z,100308.91
2023-04-15T09:34:43.094Z,100305.63
2023-04-15T09:37:07.695Z,100313.94
2023-04-15T09:39:51.071Z,100314.53
2023-04-15T09:42:14.674Z,100316.16
2023-04-15T09:44:38.612Z,100318.38
2023-04-15T09:47:02.419Z,100319.50
2023-04-15T09:49:25.983Z,100324.38
2023-04-15T09:52:04.083Z,100322.47
2023-04-15T09:54:36.814Z,100324.81
2023-04-15T09:57:08.270Z,100333.00
2023-04-15T09:59:31.899Z,100327.38
2023-04-15T10:01:55.880Z,100334.19
2023-04-15T10:04:19.865Z,100336.84
2023-04-15T10:06:43.590Z,100329.97
2023-04-15T10:09:09.768Z,100341.44
2023-04-15T10:11:34.955Z,100339.06
2023-04-15T10:13:59.193Z,100345.69
2023-04-15T10:16:24.676Z,100349.09
2023-04-15T10:18:52.715Z,100348.38
2023-04-15T10:21:18.764Z,100348.38
2023-04-15T10:23:43.039Z,100352.38
2023-04-15T10:26:08.985Z,100349.25
2023-04-15T10:28:32.820Z,100355.66
2023-04-15T10:30:57.109Z,100346.66
2023-04-15T10:33:24.411Z,100352.06
2023-04-15T10:35:50.259Z,100352.47
2023-04-15T10:38:39.906Z,100354.59
2023-04-15T10:41:21.448Z,100352.03
2023-04-15T10:43:53.068Z,100351.03
2023-04-15T10:46:21.893Z,100359.28
2023-04-15T10:48:51.349Z,100345.91
2023-04-15T10:51:15.852Z,100352.06
2023-04-15T10:53:40.051Z,100359.88
2023-04-15T10:56:06.010Z,100365.72
2023-04-15T10:58:44.159Z,100360.22
2023-04-15T11:01:07.882Z,100365.28
2023-04-15T11:03:44.032Z,100363.31
2023-04-15T11:06:08.458Z,100362.31
2023-04-15T11:08:59.048Z,100375.97
2023-04-15T11:11:22.779Z,100377.59
2023-04-15T11:13:52.472Z,100376.78
2023-04-15T11:16:16.702Z,100373.38
2023-04-15T11:18:40.267Z,100381.13
2023-04-15T11:21:07.512Z,100377.66
2023-04-15T11:23:34.721Z,100381.00
2023-04-15T11:25:59.432Z,100382.28
2023-04-15T11:28:27.595Z,100393.22
2023-04-15T11:30:52.749Z,100390.47
2023-04-15T11:33:16.284Z,100392.06
2023-04-15T11:35:41.048Z,100397.91
2023-04-15T11:38:05.605Z,100391.50
2023-04-15T11:40:31.680Z,100398.06
2023-04-15T11:43:06.923Z,100396.03
2023-04-15T11:45:30.898Z,100405.09
2023-04-15T11:47:55.952Z,100403.94
2023-04-15T11:50:21.239Z,100406.66
2023-04-15T11:52:55.217Z,100410.44
2023-04-15T11:55:19.084Z,100415.69
2023-04-15T11:57:43.155Z,100419.38
2023-04-15T12:00:09.726Z,100421.66
2023-04-15T12:02:33.491Z,100417.63
2023-04-15T12:05:06.776Z,100417.16
2023-04-15T12:07:30.383Z,100427.78
2023-04-15T12:09:57.670Z,100436.88
2023-04-15T12:12:22.602Z,100427.25
2023-04-15T12:14:46.252Z,100432.81
2023-04-15T12:17:13.276Z,100435.25
2023-04-15T12:19:40.087Z,100436.38
2023-04-15T12:22:07.566Z,100438.03
2023-04-15T12:24:34.605Z,100442.28
2023-04-15T12:26:59.538Z,100445.75
2023-04-15T12:29:28.441Z,100440.69
2023-04-15T12:31:53.692Z,100448.53
2023-04-15T12:34:17.489Z,100449.38
2023-04-15T12:36:41.217Z,100444.34
2023-04-15T12:39:06.828Z,100456.16
2023-04-15T12:41:30.535Z,100450.06
2023-04-15T12:43:54.061Z,100455.88
2023-04-15T12:46:17.942Z,100451.63
2023-04-15T12:48:42.131Z,100462.16
2023-04-15T12:51:05.864Z,100464.13
2023-04-15T12:53:29.657Z,100466.91
2023-04-15T12:55:54.630Z,100466.34
2023-04-15T12:58:18.342Z,100470.38
2023-04-15T13:00:42.156Z,100467.69
2023-04-15T13:03:07.012Z,100474.06
2023-04-15T13:05:30.994Z,100470.38
2023-04-15T13:07:54.533Z,100472.78
2023-04-15T13:10:18.460Z,100474.94
2023-04-15T13:12:43.594Z,100473.09
2023-04-15T13:15:09.640Z,100481.75
2023-04-15T13:17:34.445Z,100484.56
2023-04-15T13:19:58.198Z,100487.28
2023-04-15T13:22:21.724Z,100482.31
2023-04-15T13:24:45.630Z,100482.09
2023-04-15T13:27:09.160Z,100488.69
2023-04-15T13:29:34.534Z,100491.94
2023-04-15T13:31:58.303Z,100500.00
2023-04-15T13:34:21.952Z,100490.69
2023-04-15T13:36:46.035Z,100497.16
2023-04-15T13:39:09.804Z,100495.31
2023-04-15T13:41:33.389Z,100497.44
2023-04-15T13:43:58.427Z,100502.59
2023-04-15T13:46:23.448Z,100498.75
2023-04-15T13:48:47.066Z,100503.41
2023-04-15T13:51:10.620Z,100502.94
2023-04-15T13:53:38.187Z,100508.63
2023-04-15T13:56:03.069Z,100508.97
2023-04-15T13:58:26.733Z,100515.16
2023-04-15T14:00:50.517Z,100513.75
2023-04-15T14:03:15.738Z,100513.88
2023-04-15T14:05:39.653Z,100524.53
2023-04-15T14:08:03.327Z,100523.38
2023-04-15T14:10:26.866Z,100526.53
2023-04-15T14:12:50.757Z,100528.25
2023-04-15T14:15:14.378Z,100533.78
2023-04-15T14:17:38.728Z,100526.00
2023-04-15T14:20:03.936Z,100527.28
2023-04-15T14:22:27.666Z,100539.88
2023-04-15T14:24:53.172Z,100536.47
2023-04-15T14:27:16.879Z,100547.94
2023-04-15T14:29:40.460Z,100544.81
2023-04-15T14:32:11.369Z,100553.47
2023-04-15T14:34:36.057Z,100555.03
2023-04-15T14:37:01.124Z,100555.31
2023-04-15T14:39:26.326Z,100561.00
2023-04-15T14:41:51.669Z,100562.56
2023-04-15T14:44:15.410Z,100568.25
2023-04-15T14:46:39.309Z,100567.09
2023-04-15T14:49:03.427Z,100564.84
2023-04-15T14:51:28.386Z,100562.56
2023-04-15T14:53:53.354Z,100571.06
2023-04-15T14:56:17.016Z,100572.63
2023-04-15T14:58:40.659Z,100570.91
2023-04-15T15:01:05.512Z,100571.78
2023-04-15T15:03:30.316Z,100579.41
2023-04-15T15:05:54.305Z,100582.97
2023-04-15T15:08:17.970Z,100585.81
2023-04-15T15:10:47.166Z,100586.50
2023-04-15T15:13:13.025Z,100588.06
2023-04-15T15:15:37.326Z,100593.75
2023-04-15T15:18:01.387Z,100590.63
2023-04-15T15:20:25.441Z,100603.06
2023-04-15T15:22:49.068Z,100600.28
2023-04-15T15:25:12.634Z,100603.94
2023-04-15T15:27:38.404Z,100607.22
2023-04-15T15:30:02.082Z,100616.69
2023-04-15T15:32:25.706Z,100613.59
2023-04-15T15:34:49.298Z,100611.59
2023-04-15T15:37:13.000Z,100605.47
2023-04-15T15:39:37.183Z,100613.25
2023-04-15T15:42:01.080Z,100612.03
2023-04-15T15:44:26.086Z,100610.97
2023-04-15T15:46:49.740Z,100620.53
2023-04-15T15:49:14.163Z,100618.97
2023-04-15T15:51:37.727Z,100626.91
2023-04-15T15:54:01.268Z,100623.78
2023-04-15T15:56:24.934Z,100629.13
2023-04-15T15:58:48.457Z,100632.00
2023-04-15T16:01:13.493Z,100627.91
2023-04-15T16:03:37.574Z,100634.72
2023-04-15T16:06:01.634Z,100637.88
2023-04-15T16:08:25.193Z,100632.84
2023-04-15T16:10:48.827Z,100637.28
2023-04-15T16:13:12.737Z,100633.47
2023-04-15T16:15:36.351Z,100639.13
2023-04-15T16:18:01.495Z,100642.16
2023-04-15T16:20:25.140Z,100642.22
2023-04-15T16:22:48.833Z,100645.91
2023-04-15T16:25:12.507Z,100651.59
2023-04-15T16:27:54.179Z,100656.19
2023-04-15T16:30:22.166Z,100635.91
2023-04-15T16:32:46.059Z,100651.81
2023-04-15T16:35:11.716Z,100657.47
2023-04-15T16:37:36.184Z,100655.16
2023-04-15T16:39:59.894Z,100663.09
2023-04-15T16:42:23.382Z,100660.06
2023-04-15T16:44:47.052Z,100663.31
2023-04-15T16:47:12.019Z,100657.22
2023-04-15T16:49:35.987Z,100664.69
2023-04-15T16:52:01.049Z,100676.09
2023-04-15T16:54:24.612Z,100664.84
2023-04-15T16:56:48.130Z,100673.94
2023-04-15T16:59:11.752Z,100669.78
2023-04-15T17:01:36.649Z,100683.81
2023-04-15T17:04:00.556Z,100683.16
2023-04-15T17:06:24.357Z,100685.13
2023-04-15T17:08:49.777Z,100681.44
2023-04-15T17:11:15.144Z,100692.84
2023-04-15T17:13:39.157Z,100692.88
2023-04-15T17:16:03.140Z,100694.63
2023-04-15T17:18:26.966Z,100703.97
2023-04-15T17:20:50.668Z,100698.97
2023-04-15T17:23:14.307Z,100701.84
2023-04-15T17:25:39.469Z,100710.09
2023-04-15T17:28:03.119Z,100708.03
2023-04-15T17:30:27.127Z,100706.91
2023-04-15T17:32:51.018Z,100722.03
2023-04-15T17:35:14.584Z,100721.41
2023-04-15T17:37:38.206Z,100722.31
2023-04-15T17:40:01.814Z,100736.38
2023-04-15T17:42:27.217Z,100731.16
2023-04-15T17:44:50.860Z,100725.31
2023-04-15T17:47:14.551Z,100735.72
2023-04-15T17:49:38.272Z,100736.50
2023-04-15T17:52:02.122Z,100740.94
2023-04-15T17:54:25.706Z,100742.88
2023-04-15T17:56:49.853Z,100751.25
2023-04-15T17:59:15.294Z,100746.25
2023-04-15T18:01:39.024Z,100754.88
2023-04-15T18:04:02.844Z,100754.72
2023-04-15T18:06:27.724Z,100757.28
2023-04-15T18:08:51.289Z,100766.28
2023-04-15T18:11:14.955Z,100772.78
2023-04-15T18:13:38.543Z,100769.16
2023-04-15T18:16:03.605Z,100772.69
2023-04-15T18:18:27.228Z,100770.44
2023-04-15T18:20:50.836Z,100782.88
2023-04-15T18:23:14.923Z,100779.16
2023-04-15T18:25:38.965Z,100784.34
2023-04-15T18:28:02.530Z,100784.09
2023-04-15T18:30:26.164Z,100789.09
2023-04-15T18:32:51.246Z,100791.72
2023-04-15T18:35:14.953Z,100796.63
2023-04-15T18:37:38.537Z,100803.13
2023-04-15T18:40:02.180Z,100806.63
2023-04-15T18:42:26.172Z,100810.22
2023-04-15T18:44:49.855Z,100815.47
2023-04-15T18:47:13.456Z,100805.72
2023-04-15T18:49:38.521Z,100814.59
2023-04-15T18:52:02.036Z,100822.28
2023-04-15T18:54:25.854Z,100825.47
2023-04-15T18:56:49.366Z,100822.47
2023-04-15T18:59:28.824Z,100832.91
2023-04-15T19:01:54.020Z,100830.78
2023-04-15T19:04:17.647Z,100826.59
2023-04-15T19:06:42.660Z,100834.69
2023-04-15T19:09:06.746Z,100841.22
2023-04-15T19:11:31.309Z,100838.44
2023-04-15T19:13:55.385Z,100842.63
2023-04-15T19:16:19.038Z,100839.97
2023-04-15T19:18:43.012Z,100854.88
2023-04-15T19:21:06.643Z,100860.75
2023-04-15T19:23:32.665Z,100860.72
2023-04-15T19:25:57.079Z,100854.50
2023-04-15T19:28:20.670Z,100856.47
2023-04-15T19:30:44.378Z,100854.66
2023-04-15T19:33:08.080Z,100854.00
2023-04-15T19:35:31.782Z,100866.09
2023-04-15T19:37:55.384Z,100866.09
2023-04-15T19:40:20.682Z,100870.88
2023-04-15T19:42:44.253Z,100874.03
2023-04-15T19:45:09.312Z,100872.97
2023-04-15T19:47:34.741Z,100879.88
2023-04-15T19:49:58.513Z,100885.50
2023-04-15T19:52:22.457Z,100878.59
2023-04-15T19:54:46.107Z,100881.78
2023-04-15T19:57:11.209Z,100885.31
2023-04-15T19:59:34.982Z,100886.88
2023-04-15T20:01:58.789Z,100888.63
2023-04-15T20:04:22.911Z,100891.09
2023-04-15T20:06:46.527Z,100885.78
2023-04-15T20:09:11.407Z,100892.53
2023-04-15T20:12:47.932Z,100890.56
2023-04-15T20:14:20.458Z,100891.56
2023-04-15T20:16:44.014Z,100891.25
2023-04-15T20:19:09.120Z,100893.75
2023-04-15T20:21:32.730Z,100889.78
2023-04-15T20:23:56.346Z,100898.03
2023-04-15T20:26:20.771Z,100899.06
2023-04-15T20:28:44.462Z,100903.00
2023-04-15T20:31:09.444Z,100897.53
2023-04-15T20:33:33.220Z,100898.66
2023-04-15T20:35:57.055Z,100906.00
2023-04-15T20:38:21.809Z,100899.44
2023-04-15T20:40:45.666Z,100911.91
2023-04-15T20:43:10.856Z,100909.38
2023-04-15T20:45:34.641Z,100907.22
2023-04-15T20:47:59.706Z,100906.16
2023-04-15T20:50:23.315Z,100904.16
2023-04-15T20:52:47.071Z,100912.97
2023-04-15T20:55:11.223Z,100910.28
2023-04-15T20:57:34.977Z,100907.78
2023-04-15T20:59:58.597Z,100914.38
2023-04-15T21:02:24.202Z,100911.69
2023-04-15T21:04:49.741Z,100916.75
2023-04-15T21:07:13.455Z,100915.91
2023-04-15T21:09:38.658Z,100915.91
2023-04-15T21:12:02.585Z,100919.81
2023-04-15T21:14:26.164Z,100922.09
2023-04-15T21:16:49.971Z,100925.41
2023-04-15T21:19:13.680Z,100920.13
2023-04-15T21:21:39.171Z,100926.50
2023-04-15T21:24:02.874Z,100928.56
2023-04-15T21:26:26.503Z,100937.09
2023-04-15T21:28:50.023Z,100938.50
2023-04-15T21:31:13.670Z,100949.63
2023-04-15T21:33:37.272Z,100940.81
2023-04-15T21:36:00.959Z,100943.59
2023-04-15T21:38:26.089Z,100945.34
2023-04-15T21:40:51.621Z,100949.81
2023-04-15T21:43:15.124Z,100961.97
2023-04-15T21:45:39.756Z,100947.06
2023-04-15T21:48:07.571Z,100949.47
2023-04-15T21:50:32.045Z,100956.50
2023-04-15T21:52:55.563Z,100965.03
2023-04-15T21:55:21.086Z,100964.69
2023-04-15T21:57:44.629Z,100968.22
2023-04-15T22:00:10.539Z,100967.09
2023-04-15T22:02:34.253Z,100971.25
2023-04-15T22:04:57.911Z,100970.66
2023-04-15T22:07:21.419Z,100975.06
2023-04-15T22:09:45.106Z,100977.75
2023-04-15T22:12:10.159Z,100979.84
2023-04-15T22:14:33.825Z,100972.25
2023-04-15T22:16:57.863Z,100980.56
2023-04-15T22:19:21.651Z,100984.00
2023-04-15T22:21:45.165Z,100987.66
2023-04-15T22:24:32.108Z,100991.19
2023-04-15T22:26:52.335Z,100996.31
2023-04-15T22:29:17.446Z,100997.81
2023-04-15T22:31:41.185Z,101005.97
2023-04-15T22:34:04.865Z,101002.19
2023-04-15T22:36:31.168Z,101008.78
2023-04-15T22:38:54.841Z,101008.69
2023-04-15T22:41:18.536Z,101009.66
2023-04-15T22:43:42.082Z,101011.84
2023-04-15T22:46:07.241Z,101005.63
2023-04-15T22:48:30.869Z,101012.44
2023-04-15T22:50:54.650Z,101018.22
2023-04-15T22:53:18.862Z,101017.72
2023-04-15T22:55:47.193Z,101017.50
2023-04-15T22:58:10.818Z,101024.06
2023-04-15T23:00:34.494Z,101023.75
2023-04-15T23:02:59.744Z,101028.00
2023-04-15T23:05:23.802Z,101024.72
2023-04-15T23:07:47.372Z,101030.16
2023-04-15T23:10:11.505Z,101034.59
2023-04-15T23:12:35.152Z,101028.72
2023-04-15T23:14:58.717Z,101035.69
2023-04-15T23:17:22.382Z,101035.91
2023-04-15T23:19:47.481Z,101040.59
2023-04-15T23:22:12.256Z,101045.38
2023-04-15T23:24:35.947Z,101035.47
2023-04-15T23:26:59.500Z,101041.94
2023-04-15T23:29:23.145Z,101039.75
2023-04-15T23:31:46.733Z,101037.75
2023-04-15T23:34:10.589Z,101041.47
2023-04-15T23:36:35.645Z,101038.50
2023-04-15T23:38:59.292Z,101050.16
2023-04-15T23:41:23.400Z,101039.25
2023-04-15T23:43:47.208Z,101052.47
2023-04-15T23:46:11.913Z,101046.59
2023-04-15T23:48:35.603Z,101039.72
2023-04-15T23:50:59.265Z,101051.09
2023-04-15T23:53:24.405Z,101048.56
2023-04-15T23:55:48.016Z,101048.31
2023-04-15T23:58:11.848Z,101053.44
